Terminal Aerodrome Forecast
Issued by NWS

Home | Current Version | Previous Version | Text Only | Print | Product List | Glossary On
Versions: 1 2 3 4 5 6 7 8 9 10 11 12 13 14 15 16 17 18
000
FTUS45 KABQ 301700
TAFLVS
TAF
KLVS 301722Z 3018/0118 16008KT P6SM SKC
      TEMPO 3019/3022 24013G21KT
     FM302200 24015G25KT P6SM SKC
     FM010130 26010KT P6SM SKC=

USA.gov is the U.S. government's official web portal to all federal, state and local government web resources and services.